METAR Data
IDs: Format: Raw Decoded Include TAF

Data at: 2355 UTC 24 Apr 2019

PAWM 242256Z AUTO 15007KT 9SM OVC033 M02/M08 A3018 RMK AO2 SLP224 T10171078 FZRANO
PAWM 242214Z AUTO 15006KT 9SM SCT028 OVC033 M02/M07 A3017 RMK AO2 FZRANO
PAWM 242156Z AUTO 15009KT 9SM OVC028 M01/M07 A3016 RMK AO2 SLP219 T10061072 FZRANO
PAWM 242056Z AUTO 13005KT 9SM OVC026 M01/M07 A3015 RMK AO2 SLP215 60000 T10111072 53011 FZRANO
PAWM 241956Z AUTO 19005KT 10SM OVC026 M02/M07 A3014 RMK AO2 UPE11 SLP212 P0000 T10171067 FZRANO
PAWM 241904Z AUTO 12004KT 10SM UP SCT008 BKN021 OVC028 M02/M04 A3013 RMK AO2 P0000 FZRANO
PAWM 241856Z AUTO 13003KT 10SM UP BKN008 BKN023 OVC028 M02/M04 A3012 RMK AO2 UPB22 SLP206 P0000 T10221044 FZRANO
PAWM 241834Z AUTO 08003KT 9SM UP SCT006 OVC028 M02/M03 A3012 RMK AO2 UPB22 P0000 FZRANO
PAWM 241806Z AUTO 00000KT 10SM BKN006 OVC026 M02/M03 A3012 RMK AO2 FZRANO
PAWM 241756Z AUTO 00000KT 10SM SCT006 OVC026 M03/M03 A3012 RMK AO2 SNE40 SLP204 P0000 60000 T10281033 11028 21050 53016 FZRANO
PAWM 241656Z AUTO 00000KT 7SM -SN BKN028 M05/M06 A3010 RMK AO2 SLP198 P0000 T10501056 FZRANO
PAWM 241556Z AUTO 00000KT 4SM -SN BR SCT040 OVC050 M04/M06 A3008 RMK AO2 SLP192 P0000 T10441056 FZRANO
PAWM 241456Z AUTO 00000KT 4SM -SN BR OVC043 M04/M05 A3007 RMK AO2 SLP188 P0000 60000 T10441050 51009 FZRANO
PAWM 241444Z AUTO 15003KT 2 1/2SM -SN BR OVC041 M04/M05 A3007 RMK AO2 VIS 1 3/4V4 P0000 FZRANO
PAWM 241356Z AUTO 15003KT 4SM -SN BR FEW014 BKN035 OVC045 M04/M05 A3005 RMK AO2 SLP183 P0000 T10441050 FZRANO
PAWM 241256Z AUTO 00000KT 3SM -SN BR SCT021 OVC038 M04/M06 A3004 RMK AO2 SLP178 P0000 T10441056 FZRANO
PAWM 241156Z AUTO 00000KT 6SM -SN BR OVC021 M04/M05 A3003 RMK AO2 SNB13 SLP176 P0000 60000 T10391050 11033 21044 51019 FZRANO
PAWM 241011Z AUTO 13004KT 9SM -SN SCT013 OVC027 M04/M06 A3001 RMK AO2 P0000 FZRANO
PAWM 240956Z AUTO 13003KT 9SM -SN BKN013 OVC027 M04/M06 A3000 RMK AO2 SLP165 P0000 T10391056 FZRANO
PAWM 240938Z AUTO 00000KT 9SM -SN BKN013 BKN027 OVC038 M04/M06 A3000 RMK AO2 P0000 FZRANO
PAWM 240931Z AUTO 00000KT 9SM -SN SCT013 BKN027 OVC038 M04/M06 A2999 RMK AO2 P0000 FZRANO
PAWM 240856Z AUTO 15003KT 8SM -SN OVC040 M04/M06 A2998 RMK AO2 SLP157 P0000 60000 T10391056 400171039 51018 FZRANO
PAWM 240756Z AUTO 17003KT 8SM -SN OVC034 M04/M05 A2997 RMK AO2 SLP153 P0000 T10391050 FZRANO
PAWM 240742Z AUTO 18004KT 7SM -SN FEW013 OVC034 M04/M05 A2996 RMK AO2 P0000 FZRANO
PAWM 240719Z AUTO 19005KT 7SM -SN OVC011 M04/M05 A2995 RMK AO2 P0000 FZRANO
PAWM 240656Z AUTO 19006KT 6SM -SN BR OVC009 M03/M04 A2994 RMK AO2 SLP145 P0000 T10331044 FZRANO
PAWM 240603Z AUTO 19005KT 7SM -SN OVC010 M03/M04 A2993 RMK AO2 CIG 006V013 P0000 FZRANO
PAWM 240556Z AUTO 19005KT 7SM -SN OVC008 M03/M04 A2992 RMK AO2 CIG 006V012 SLP139 P0000 60000 T10331044 11011 21033 53019 FZRANO
PAWM 240356Z AUTO 18006KT 5SM -SN BR OVC006 M03/M04 A2989 RMK AO2 SLP126 P0000 T10281039 FZRANO
PAWM 240256Z AUTO 18007KT 3SM -SN BR OVC006 M03/M04 A2987 RMK AO2 SLP120 P0000 60000 T10281039 51024 FZRANO
PAWM 240229Z AUTO 19006KT 4SM -SN BR OVC006 M02/M04 A2986 RMK AO2 P0000 FZRANO
PAWM 240216Z AUTO 20007KT 2 1/2SM -SN BR OVC006 M03/M04 A2986 RMK AO2 P0000 FZRANO
PAWM 240156Z AUTO 19008KT 2 1/2SM -SN BR OVC004 M02/M04 A2985 RMK AO2 SLP113 P0000 T10221039 FZRANO
PAWM 240129Z AUTO 21007KT 2SM -SN BR OVC004 M02/M03 A2984 RMK AO2 P0000 FZRANO
PAWM 240056Z AUTO 19007KT 5SM -SN BR OVC004 M02/M03 A2982 RMK AO2 UPE2357B25E53SNB2357E25B31E45B53 SLP104 P0000 T10221033 FZRANO
PAWM 240018Z AUTO 19009KT 4SM -SN BR OVC004 M02/M03 A2981 RMK AO2 UPE2357SNB2357 P0000 FZRANO
PAWM 240005Z AUTO 20010KT 2SM -SN BR OVC004 M02/M03 A2980 RMK AO2 UPE2357SNB2357 P0000 FZRANO
PAWM 232356Z AUTO 19008KT 3SM UP BR OVC004 M01/M03 A2980 RMK AO2 UPB42SNE42 CIG 003V007 SLP095 P0000 60000 T10111028 10017 21022 51024 FZRANO
PAWM 232256Z AUTO 19008KT 7SM -SN BKN006 OVC010 00/M02 A2977 RMK AO2 UPE56SNB56 SLP087 P0000 T00001022 FZRANO
PAWM 232156Z AUTO 21007KT 7SM UP BKN008 BKN012 OVC024 00/M02 A2975 RMK AO2 CIG 005V009 SLP080 P0000 T00001022 FZRANO
PAWM 232126Z AUTO 21006KT 4SM UP BR OVC008 00/M02 A2974 RMK AO2 CIG 004V010 P0000 FZRANO
PAWM 232056Z AUTO 17005KT 2 1/2SM UP BR BKN005 OVC008 M01/M02 A2973 RMK AO2 UPB40SNE40 SLP071 P0000 60000 T10061017 51015 FZRANO
PAWM 232052Z AUTO 17005KT 2 1/2SM UP BR OVC007 00/M02 A2972 RMK AO2 UPB40SNE40 CIG 004V009 P0000 FZRANO
PAWM 232010Z AUTO 28003KT 1 1/2SM -SN BKN009 BKN014 OVC027 02/M02 A2971 RMK AO2 P0000 FZRANO
PAWM 232001Z AUTO 00000KT 1 3/4SM -SN FEW009 SCT014 OVC027 02/M02 A2971 RMK AO2 P0000 FZRANO
PAWM 231956Z AUTO 34003KT 2SM -SN FEW014 BKN025 OVC029 01/M02 A2970 RMK AO2 SLP063 P0000 T00111022 FZRANO
PAWM 231942Z AUTO 34005KT 2SM -SN SCT014 BKN022 OVC031 01/M02 A2970 RMK AO2 P0000 FZRANO
PAWM 231931Z AUTO 34005KT 1 3/4SM -SN SCT014 OVC029 01/M02 A2969 RMK AO2 P0000 FZRANO
PAWM 231920Z AUTO 35004KT 2SM -SN BKN014 OVC018 01/M02 A2969 RMK AO2 VIS 1 3/4V2 1/2 P0000 FZRANO
PAWM 231856Z AUTO 33004KT 3SM -SN BR BKN014 OVC028 M01/M02 A2968 RMK AO2 SLP057 P0000 T10061022 FZRANO
PAWM 231854Z AUTO 34005KT 3SM -SN BR BKN014 OVC028 M01/M02 A2968 RMK AO2 P0000 FZRANO
PAWM 231820Z AUTO 33005KT 1 1/4SM -SN BR SCT014 BKN021 OVC028 M02/M03 A2967 RMK AO2 P0000 FZRANO
PAWM 231817Z AUTO 32005KT 1SM -SN BR BKN014 BKN019 OVC026 M02/M03 A2967 RMK AO2 P0000 FZRANO
PAWM 231803Z AUTO 33005KT 3/4SM -SN BR BKN014 OVC022 M02/M04 A2967 RMK AO2 P0000 FZRANO
PAWM 231756Z AUTO 33006KT 1SM -SN BR BKN014 BKN020 OVC030 M02/M04 A2966 RMK AO2 SLP051 P0000 60000 T10221039 11017 21022 51014 FZRANO
PAWM 231752Z AUTO 33006KT 1SM -SN BR BKN014 BKN020 OVC029 M02/M04 A2966 RMK AO2 P0000 FZRANO
PAWM 231735Z AUTO 33006KT 1 1/2SM -SN BR FEW020 BKN026 OVC032 M02/M04 A2966 RMK AO2 P0000 FZRANO
PAWM 231721Z AUTO 34007KT 1 1/2SM -SN BR SCT021 OVC031 M02/M04 A2965 RMK AO2 P0000 FZRANO
PAWM 231710Z AUTO 32005KT 2SM -SN BR SCT018 BKN023 OVC030 M02/M04 A2965 RMK AO2 VIS 1 1/2V3 P0000 FZRANO
PAWM 231656Z AUTO 33005KT 1 1/2SM -SN BKN017 BKN022 OVC028 M02/M04 A2965 RMK AO2 VIS 1V2 SLP044 P0000 T10171044 FZRANO
PAWM 231653Z AUTO 33006KT 1 3/4SM -SN SCT017 BKN022 OVC034 M02/M04 A2964 RMK AO2 P0000 FZRANO
PAWM 231556Z AUTO 33004KT 9SM -SN BKN028 OVC036 M02/M04 A2962 RMK AO2 SLP036 P0000 T10171044 FZRANO
PAWM 231552Z AUTO 33004KT 8SM -SN BKN028 BKN036 OVC050 M02/M04 A2962 RMK AO2 P0000 FZRANO
PAWM 231456Z AUTO 33007KT 6SM -SN OVC034 M02/M04 A2961 RMK AO2 SNB30 SLP031 P0000 60000 T10171044 51012 FZRANO
PAWM 231356Z AUTO 33006KT 10SM BKN037 BKN049 OVC060 M02/M04 A2960 RMK AO2 SLP029 T10171044 FZRANO
PAWM 231256Z AUTO VRB06KT 10SM OVC055 M02/M04 A2958 RMK AO2 SLP023 T10171044 FZRANO
PAWM 231156Z AUTO 33005KT 10SM OVC055 M02/M04 A2957 RMK AO2 SLP019 T10171044 10011 21017 51009 FZRANO